Time;durP1;ratioP1;P1;durP2;ratioP2;P2;SDS_P1;SDS_P2;PMS_P1;PMS_P2;Temp;Humidity;BMP_temperature;BMP_pressure;BME280_temperature;BME280_humidity;BME280_pressure;Samples;Min_cycle;Max_cycle;Signal;HPM_P1;HPM_P2
2023/04/27 00:00:29;;;;;;;14.90;8.73;;;;;;;15.99;55.55;98608.59;5010579;28;20412;-69
2023/04/27 00:02:55;;;;;;;18.58;10.50;;;;;;;16.07;55.53;98600.31;5026494;28;20044;-69
2023/04/27 00:05:21;;;;;;;17.13;9.52;;;;;;;16.07;55.19;98600.31;5039907;28;20433;-70
2023/04/27 00:07:47;;;;;;;18.70;9.15;;;;;;;16.09;54.58;98603.59;5060770;28;20488;-70
2023/04/27 00:10:13;;;;;;;19.25;9.50;;;;;;;16.10;54.69;98597.19;5043481;28;20036;-70
2023/04/27 00:12:42;;;;;;;18.48;8.93;;;;;;;16.11;54.37;98606.88;5044053;28;20047;-69
2023/04/27 00:15:09;;;;;;;18.52;8.98;;;;;;;16.17;54.51;98605.19;5043835;28;20051;-70
2023/04/27 00:17:36;;;;;;;19.77;9.07;;;;;;;16.13;54.27;98610.13;5076864;28;20108;-70
2023/04/27 00:20:10;;;;;;;17.90;9.43;;;;;;;16.19;54.46;98611.16;5060864;28;20044;-71
2023/04/27 00:22:39;;;;;;;18.42;8.90;;;;;;;16.35;54.55;98606.06;5060555;28;20060;-69
2023/04/27 00:25:06;;;;;;;17.63;8.98;;;;;;;16.20;54.07;98608.25;5092586;28;20085;-70
2023/04/27 00:27:32;;;;;;;18.30;9.50;;;;;;;16.18;53.96;98604.13;5059627;28;20055;-70
2023/04/27 00:29:58;;;;;;;16.55;9.27;;;;;;;16.21;53.96;98607.19;5043022;28;20046;-69
2023/04/27 00:32:23;;;;;;;18.50;9.73;;;;;;;16.21;54.04;98606.38;5042804;28;20408;-70
2023/04/27 00:34:49;;;;;;;16.73;9.43;;;;;;;16.23;53.81;98605.13;5042930;28;20269;-71
2023/04/27 00:37:15;;;;;;;16.08;9.98;;;;;;;16.24;53.70;98609.44;5042905;28;20512;-70
2023/04/27 00:39:41;;;;;;;16.88;9.52;;;;;;;16.27;53.31;98618.88;5043574;28;20138;-69
2023/04/27 00:42:12;;;;;;;16.63;9.50;;;;;;;16.25;53.12;98608.38;5041979;28;20220;-70
2023/04/27 00:44:37;;;;;;;17.02;9.32;;;;;;;16.23;53.10;98613.16;5044072;28;20051;-70
2023/04/27 00:47:04;;;;;;;21.23;9.20;;;;;;;16.36;53.34;98615.72;5043836;28;20073;-72
2023/04/27 00:49:31;;;;;;;14.90;8.85;;;;;;;16.36;53.20;98614.91;5038807;28;20482;-69
2023/04/27 00:51:57;;;;;;;18.15;9.15;;;;;;;16.26;53.30;98615.41;5038744;28;20487;-69
2023/04/27 00:54:23;;;;;;;19.10;10.32;;;;;;;16.26;53.69;98612.72;5022229;28;20062;-69
2023/04/27 00:56:51;;;;;;;19.83;9.90;;;;;;;16.20;53.51;98615.47;5006218;28;20093;-69
2023/04/27 00:59:19;;;;;;;18.33;9.55;;;;;;;16.29;53.40;98612.28;5021845;28;20060;-72
2023/04/27 01:01:48;;;;;;;19.48;9.65;;;;;;;16.28;53.24;98616.00;5009972;28;20076;-69
2023/04/27 01:04:15;;;;;;;16.40;9.13;;;;;;;16.18;53.36;98618.34;4992952;28;20539;-70
2023/04/27 01:06:41;;;;;;;15.05;9.10;;;;;;;16.19;53.78;98611.16;4992850;28;20058;-70
2023/04/27 01:09:08;;;;;;;18.05;9.60;;;;;;;16.20;53.81;98615.47;4992794;28;20057;-70
2023/04/27 01:11:35;;;;;;;16.98;8.70;;;;;;;16.27;53.93;98617.03;4992956;28;20400;-71
2023/04/27 01:14:05;;;;;;;17.48;8.80;;;;;;;16.37;53.97;98617.38;4993231;28;20037;-70
2023/04/27 01:16:32;;;;;;;19.63;8.93;;;;;;;16.25;53.69;98616.44;4993344;28;20076;-70
2023/04/27 01:18:58;;;;;;;10.68;7.22;;;;;;;16.19;53.25;98606.59;4994926;28;20523;-69
2023/04/27 01:21:25;;;;;;;14.93;8.40;;;;;;;16.22;53.23;98608.81;5012606;28;20061;-69
2023/04/27 01:23:51;;;;;;;13.57;9.00;;;;;;;16.20;53.05;98618.13;5015160;28;20048;-70
2023/04/27 01:26:17;;;;;;;13.82;8.88;;;;;;;16.21;53.49;98601.84;5014953;28;20128;-69
2023/04/27 01:28:44;;;;;;;11.85;7.72;;;;;;;16.23;53.39;98610.50;5014797;28;20065;-70
2023/04/27 01:31:11;;;;;;;20.20;8.75;;;;;;;16.26;53.58;98615.41;5014954;28;20479;-70
2023/04/27 01:33:38;;;;;;;18.77;10.32;;;;;;;16.25;53.71;98619.09;5052521;28;20098;-70
2023/04/27 01:36:07;;;;;;;18.77;10.35;;;;;;;16.15;54.00;98618.78;5055763;28;20080;-69
2023/04/27 01:38:33;;;;;;;17.52;9.95;;;;;;;16.11;54.59;98611.41;5039084;28;20059;-69
2023/04/27 01:41:00;;;;;;;17.88;9.10;;;;;;;16.12;54.08;98613.88;5022389;28;20041;-69
2023/04/27 01:43:27;;;;;;;15.25;8.88;;;;;;;16.13;54.21;98609.34;5022612;28;20040;-69
2023/04/27 01:45:53;;;;;;;12.40;8.32;;;;;;;15.98;54.32;98609.66;5022240;28;20047;-70
2023/04/27 01:48:20;;;;;;;15.32;8.15;;;;;;;15.95;54.38;98618.13;5022726;28;20047;-70
2023/04/27 01:50:46;;;;;;;14.07;8.00;;;;;;;15.97;54.65;98620.56;5022337;28;20048;-69
2023/04/27 01:53:16;;;;;;;11.90;8.60;;;;;;;16.09;54.82;98613.47;5037933;28;20044;-69
2023/04/27 01:55:44;;;;;;;15.27;8.32;;;;;;;15.93;54.39;98620.19;5038909;28;20382;-69
2023/04/27 01:58:11;;;;;;;14.18;8.05;;;;;;;15.91;54.45;98629.47;5037526;28;20052;-70
2023/04/27 02:00:40;;;;;;;16.40;7.95;;;;;;;15.81;54.42;98613.88;5021400;28;20143;-70
2023/04/27 02:03:08;;;;;;;11.50;7.80;;;;;;;15.97;54.27;98632.13;5021280;28;20055;-72
2023/04/27 02:05:35;;;;;;;11.75;7.45;;;;;;;16.19;54.04;98621.88;5004754;28;20040;-70
2023/04/27 02:08:01;;;;;;;13.55;8.35;;;;;;;16.05;53.61;98621.13;4997305;28;20130;-70
2023/04/27 02:10:29;;;;;;;16.30;9.25;;;;;;;16.13;53.89;98641.50;4965441;28;20127;-70
2023/04/27 02:12:59;;;;;;;18.00;11.55;;;;;;;15.86;55.09;98634.66;5013806;28;20056;-70
2023/04/27 02:15:28;;;;;;;18.10;11.20;;;;;;;15.52;56.84;98633.19;4981982;28;20136;-70
2023/04/27 02:17:57;;;;;;;20.42;10.32;;;;;;;15.39;57.37;98625.22;5013947;28;20114;-70
2023/04/27 02:20:23;;;;;;;18.83;10.35;;;;;;;15.53;56.81;98639.38;4981111;28;20144;-70
2023/04/27 02:22:52;;;;;;;17.85;12.02;;;;;;;15.53;56.77;98642.84;4997578;28;20056;-70
2023/04/27 02:25:18;;;;;;;21.48;12.77;;;;;;;15.50;57.25;98643.28;4997792;28;20140;-70
2023/04/27 02:27:47;;;;;;;26.33;15.10;;;;;;;15.58;57.45;98635.03;4994102;28;20483;-70
2023/04/27 02:30:13;;;;;;;24.95;14.30;;;;;;;15.64;57.39;98641.38;4959166;28;20077;-70
2023/04/27 02:32:40;;;;;;;22.27;13.93;;;;;;;15.56;57.53;98639.75;4958613;28;20137;-72
2023/04/27 02:35:08;;;;;;;27.60;14.48;;;;;;;15.55;57.60;98634.63;4958462;28;20058;-69
2023/04/27 02:37:35;;;;;;;19.63;12.50;;;;;;;15.61;57.14;98637.28;4974253;28;20420;-72
2023/04/27 02:40:03;;;;;;;16.85;11.63;;;;;;;15.72;56.84;98641.94;5013835;28;20055;-70
2023/04/27 02:42:31;;;;;;;18.67;11.55;;;;;;;15.63;56.83;98645.91;5016675;28;20140;-69
2023/04/27 02:44:57;;;;;;;22.80;12.90;;;;;;;15.74;57.42;98652.44;5016638;28;20594;-70
2023/04/27 02:47:23;;;;;;;21.33;12.80;;;;;;;15.73;56.95;98653.50;5016578;28;20053;-69
2023/04/27 02:49:52;;;;;;;19.58;11.32;;;;;;;15.84;56.40;98642.91;5010020;28;20050;-70
2023/04/27 02:52:18;;;;;;;15.98;10.70;;;;;;;15.86;55.96;98658.75;4993761;28;20054;-69
2023/04/27 02:54:45;;;;;;;17.35;11.80;;;;;;;16.01;55.38;98664.63;4993594;28;20049;-70
2023/04/27 02:57:12;;;;;;;18.75;10.88;;;;;;;15.86;55.63;98661.44;4993634;28;20096;-70
2023/04/27 02:59:41;;;;;;;17.25;11.25;;;;;;;15.83;55.97;98667.22;5013313;28;20057;-72
2023/04/27 03:02:07;;;;;;;17.63;9.90;;;;;;;15.80;56.07;98673.84;4981095;28;20127;-75
2023/04/27 03:04:35;;;;;;;18.13;12.00;;;;;;;15.67;56.33;98673.88;5010038;28;20088;-71
2023/04/27 03:07:02;;;;;;;19.05;11.82;;;;;;;15.71;56.64;98672.44;4983226;28;20145;-73
2023/04/27 03:09:29;;;;;;;28.67;11.27;;;;;;;15.75;56.37;98687.03;4981671;28;20069;-69
2023/04/27 03:11:58;;;;;;;21.35;11.00;;;;;;;15.93;55.87;98684.44;4993897;28;20512;-69
2023/04/27 03:14:23;;;;;;;16.40;10.13;;;;;;;15.89;55.43;98677.91;4961715;28;20469;-67
2023/04/27 03:16:50;;;;;;;11.80;8.65;;;;;;;15.89;55.24;98687.78;4977898;28;20126;-70
2023/04/27 03:19:16;;;;;;;21.10;12.90;;;;;;;15.92;55.53;98684.66;4978079;28;20064;-68
2023/04/27 03:21:43;;;;;;;17.30;10.63;;;;;;;16.06;55.10;98691.59;5015779;28;20123;-71
2023/04/27 03:24:08;;;;;;;17.98;11.93;;;;;;;16.18;54.30;98695.22;4946000;28;20058;-73
2023/04/27 03:26:35;;;;;;;18.45;11.35;;;;;;;16.29;53.80;98691.84;4945514;28;20046;-68
2023/04/27 03:29:03;;;;;;;14.93;10.05;;;;;;;16.40;53.34;98689.31;4961789;28;20125;-68
2023/04/27 03:31:29;;;;;;;17.98;9.65;;;;;;;16.50;52.85;98696.84;4946863;28;20062;-68
2023/04/27 03:33:55;;;;;;;16.80;10.95;;;;;;;16.56;52.53;98704.84;4965796;28;20053;-68
2023/04/27 03:36:21;;;;;;;20.13;10.88;;;;;;;16.66;52.24;98709.72;4932864;28;20077;-76
2023/04/27 03:38:48;;;;;;;20.20;11.85;;;;;;;16.70;52.37;98713.59;4941675;28;20047;-72
2023/04/27 03:41:13;;;;;;;16.10;10.98;;;;;;;16.76;52.65;98718.91;4925258;28;20397;-68
2023/04/27 03:43:42;;;;;;;19.42;11.50;;;;;;;16.85;51.68;98717.59;4956653;28;20137;-67
2023/04/27 03:46:13;;;;;;;25.10;12.35;;;;;;;16.69;51.88;98720.84;4977190;28;20064;-68
2023/04/27 03:48:42;;;;;;;18.40;11.80;;;;;;;16.66;51.83;98720.47;4960472;28;20054;-69
2023/04/27 03:51:09;;;;;;;20.42;12.18;;;;;;;16.61;52.73;98720.28;4941662;28;20050;-69
2023/04/27 03:53:35;;;;;;;22.70;12.65;;;;;;;16.72;52.46;98725.78;4942037;28;20051;-71
2023/04/27 03:56:02;;;;;;;21.08;12.38;;;;;;;16.73;52.49;98730.09;5007994;28;20165;-69
2023/04/27 03:58:29;;;;;;;27.35;12.27;;;;;;;16.78;52.45;98730.25;4996947;28;20081;-69
2023/04/27 04:01:15;;;;;;;28.95;15.35;;;;;;;16.66;52.30;98734.69;4958399;28;20149;-70
2023/04/27 04:03:43;;;;;;;28.58;14.27;;;;;;;16.80;52.51;98730.84;4955082;28;20141;-70
2023/04/27 04:06:10;;;;;;;22.63;13.38;;;;;;;16.66;52.12;98732.00;4949956;29;20062;-69
2023/04/27 04:08:38;;;;;;;21.52;11.45;;;;;;;16.58;52.05;98729.59;4902696;29;20047;-69
2023/04/27 04:11:05;;;;;;;16.15;11.20;;;;;;;16.69;51.55;98731.56;4901754;29;20055;-69
2023/04/27 04:13:36;;;;;;;23.85;12.18;;;;;;;16.68;51.47;98750.56;4931815;29;20134;-69
2023/04/27 04:16:09;;;;;;;46.08;21.08;;;;;;;16.82;52.85;98755.59;4918380;29;20062;-69
2023/04/27 04:18:35;;;;;;;28.15;14.35;;;;;;;16.70;52.05;98751.13;4934848;29;20380;-69
2023/04/27 04:21:02;;;;;;;30.73;16.13;;;;;;;16.71;52.38;98744.75;4919900;29;20197;-69
2023/04/27 04:23:28;;;;;;;27.33;15.00;;;;;;;16.70;51.88;98749.28;4922593;29;20101;-69
2023/04/27 04:25:56;;;;;;;23.20;13.88;;;;;;;16.90;51.82;98756.38;4922296;29;20630;-69
2023/04/27 04:28:27;;;;;;;25.45;15.55;;;;;;;16.75;51.88;98749.47;4919512;29;20418;-69
2023/04/27 04:30:53;;;;;;;28.25;15.48;;;;;;;16.81;52.27;98753.94;4921851;28;20048;-69
2023/04/27 04:33:19;;;;;;;28.95;13.10;;;;;;;16.89;51.55;98750.16;4973223;28;20050;-69
2023/04/27 04:35:46;;;;;;;25.98;13.60;;;;;;;17.05;51.59;98756.84;4975688;28;20444;-69
2023/04/27 04:38:15;;;;;;;28.90;15.82;;;;;;;17.24;51.49;98756.63;4978516;28;20065;-69
2023/04/27 04:40:42;;;;;;;31.67;14.83;;;;;;;17.06;51.39;98759.31;5012451;28;20049;-69
2023/04/27 04:43:10;;;;;;;28.00;15.75;;;;;;;17.06;51.65;98753.09;4964085;28;20375;-69
2023/04/27 04:45:37;;;;;;;29.40;16.80;;;;;;;17.24;51.23;98740.53;4979713;28;20061;-69
2023/04/27 04:48:04;;;;;;;25.58;13.90;;;;;;;17.53;50.75;98753.25;4979597;28;20646;-69
2023/04/27 04:50:30;;;;;;;23.50;13.75;;;;;;;17.50;50.18;98759.09;4996153;28;20123;-69
2023/04/27 04:52:58;;;;;;;30.60;14.38;;;;;;;17.67;50.67;98768.19;4979791;28;20491;-69
2023/04/27 04:55:27;;;;;;;21.67;13.68;;;;;;;17.75;50.28;98751.78;4979473;28;20122;-69
2023/04/27 04:57:53;;;;;;;25.75;14.20;;;;;;;17.73;50.38;98763.78;4963725;28;20053;-69
2023/04/27 05:00:21;;;;;;;21.45;13.25;;;;;;;17.88;50.53;98767.72;4995519;28;20053;-69
2023/04/27 05:02:47;;;;;;;20.67;14.15;;;;;;;17.98;49.91;98762.66;4963616;28;20488;-70
2023/04/27 05:05:14;;;;;;;22.30;12.63;;;;;;;18.02;49.53;98779.16;4986796;28;20520;-70
2023/04/27 05:07:42;;;;;;;17.63;12.05;;;;;;;18.27;49.61;98780.66;4925237;28;20054;-69
2023/04/27 05:10:11;;;;;;;18.67;12.50;;;;;;;18.29;51.08;98780.44;4940859;28;20047;-68
2023/04/27 05:12:38;;;;;;;24.58;13.40;;;;;;;18.39;49.15;98775.34;4960036;28;20093;-67
2023/04/27 05:15:05;;;;;;;22.05;12.75;;;;;;;18.59;48.77;98785.81;4943809;28;20046;-67
2023/04/27 05:17:33;;;;;;;23.60;13.48;;;;;;;18.69;48.47;98776.16;4944725;28;20451;-67
2023/04/27 05:19:59;;;;;;;24.08;11.70;;;;;;;18.83;47.31;98793.72;4943876;28;20050;-67
2023/04/27 05:22:25;;;;;;;23.55;13.40;;;;;;;19.02;47.25;98787.19;4943438;28;20054;-68
2023/04/27 05:24:52;;;;;;;29.02;14.27;;;;;;;19.15;47.08;98794.22;4937055;29;20097;-67
2023/04/27 05:27:18;;;;;;;25.88;13.43;;;;;;;19.22;46.93;98787.66;4917433;29;20123;-68
2023/04/27 05:29:44;;;;;;;21.55;14.20;;;;;;;19.23;46.74;98789.31;4915169;29;20514;-66
2023/04/27 05:32:10;;;;;;;28.58;13.85;;;;;;;19.38;46.21;98795.09;4883652;29;20051;-68
2023/04/27 05:34:37;;;;;;;27.83;15.32;;;;;;;19.52;46.58;98795.66;4883428;29;20084;-69
2023/04/27 05:37:05;;;;;;;28.27;14.70;;;;;;;19.49;46.39;98791.56;4902101;29;20056;-68
2023/04/27 05:39:32;;;;;;;26.90;15.52;;;;;;;19.59;46.13;98799.88;4914775;29;20059;-67
2023/04/27 05:41:59;;;;;;;31.08;16.05;;;;;;;19.72;46.39;98790.72;4919026;29;20080;-67
2023/04/27 05:44:27;;;;;;;29.90;16.10;;;;;;;19.71;45.98;98803.34;4917835;29;20486;-67
2023/04/27 05:46:53;;;;;;;29.42;14.38;;;;;;;19.84;45.64;98810.38;4914297;29;20063;-68
2023/04/27 05:49:19;;;;;;;34.92;15.35;;;;;;;19.87;46.50;98807.22;4914512;29;20063;-70
2023/04/27 05:51:45;;;;;;;31.02;15.63;;;;;;;19.90;45.98;98807.56;4914724;29;20095;-67
2023/04/27 05:54:11;;;;;;;34.75;18.95;;;;;;;20.14;45.85;98808.34;4914561;29;20055;-68
2023/04/27 05:56:38;;;;;;;29.50;14.90;;;;;;;20.47;44.93;98800.38;4914547;29;20059;-67
2023/04/27 05:59:04;;;;;;;32.95;14.90;;;;;;;20.61;44.13;98803.56;4914607;29;20065;-67
2023/04/27 06:01:31;;;;;;;25.95;14.10;;;;;;;20.89;44.16;98803.53;4898646;29;20058;-68
2023/04/27 06:04:00;;;;;;;24.35;13.05;;;;;;;20.94;42.80;98806.34;4893683;28;20474;-68
2023/04/27 06:06:27;;;;;;;29.48;13.40;;;;;;;20.99;42.43;98807.25;4956622;28;20058;-68
2023/04/27 06:08:53;;;;;;;29.13;13.30;;;;;;;21.05;42.06;98800.88;4959131;28;20081;-68
2023/04/27 06:11:19;;;;;;;32.45;12.18;;;;;;;21.20;41.99;98809.22;4959212;28;20062;-67
2023/04/27 06:13:46;;;;;;;32.50;11.23;;;;;;;21.40;41.27;98811.44;4959094;28;20057;-67
2023/04/27 06:16:15;;;;;;;26.10;11.77;;;;;;;21.68;40.74;98805.88;4943335;28;20089;-68
2023/04/27 06:18:42;;;;;;;25.23;10.98;;;;;;;22.00;40.52;98815.03;4991490;28;20185;-68
2023/04/27 06:21:08;;;;;;;21.35;11.10;;;;;;;21.97;38.79;98817.41;4981338;28;20061;-68
2023/04/27 06:23:35;;;;;;;24.65;10.82;;;;;;;22.07;38.97;98809.41;5037328;28;20551;-68
2023/04/27 06:26:00;;;;;;;21.90;10.43;;;;;;;22.15;38.36;98817.09;5038055;28;20032;-67
2023/04/27 06:28:28;;;;;;;24.15;10.65;;;;;;;22.45;38.31;98814.75;5021582;28;20363;-67
2023/04/27 06:30:54;;;;;;;16.98;9.32;;;;;;;22.57;37.67;98812.75;5021692;28;20494;-68
2023/04/27 06:33:20;;;;;;;20.05;9.95;;;;;;;22.66;36.89;98813.91;5038115;28;20100;-68
2023/04/27 06:35:47;;;;;;;22.60;10.48;;;;;;;22.93;37.03;98815.53;5037685;28;20040;-68
2023/04/27 06:38:13;;;;;;;20.73;10.35;;;;;;;23.13;36.04;98821.13;5038132;28;20040;-68
2023/04/27 06:40:44;;;;;;;14.68;8.60;;;;;;;23.34;34.62;98830.25;5037618;28;20064;-68
2023/04/27 06:43:12;;;;;;;19.95;8.25;;;;;;;23.25;34.62;98829.94;5038235;28;20044;-68
2023/04/27 06:45:38;;;;;;;17.33;8.48;;;;;;;23.45;34.43;98821.13;5054267;28;20048;-68
2023/04/27 06:48:04;;;;;;;17.70;9.13;;;;;;;23.52;34.36;98829.88;5037746;28;20454;-68
2023/04/27 06:50:30;;;;;;;19.60;8.80;;;;;;;23.59;34.53;98825.03;5054334;28;20040;-68
2023/04/27 06:52:56;;;;;;;24.45;8.30;;;;;;;23.84;34.06;98827.91;5037646;28;20544;-68
2023/04/27 06:55:22;;;;;;;11.65;7.45;;;;;;;23.77;33.13;98842.78;5021266;28;20180;-67
2023/04/27 06:57:48;;;;;;;12.60;7.53;;;;;;;23.62;33.56;98837.25;5038152;28;20100;-68
2023/04/27 07:00:16;;;;;;;13.82;7.20;;;;;;;23.76;33.54;98843.81;5037496;28;20044;-68
2023/04/27 07:02:42;;;;;;;18.38;7.40;;;;;;;23.57;33.85;98834.50;5037637;28;20059;-68
2023/04/27 07:05:10;;;;;;;13.57;7.70;;;;;;;23.77;33.55;98845.47;5021380;28;20052;-69
2023/04/27 07:07:36;;;;;;;13.75;7.13;;;;;;;23.67;33.34;98838.09;5037491;28;20048;-67
2023/04/27 07:10:02;;;;;;;13.43;6.55;;;;;;;23.94;33.15;98836.06;5037388;28;20048;-67
2023/04/27 07:12:32;;;;;;;12.60;6.55;;;;;;;24.37;32.06;98827.63;5021604;28;20067;-68
2023/04/27 07:14:58;;;;;;;17.02;6.68;;;;;;;24.91;31.27;98838.91;5037389;28;20143;-68
2023/04/27 07:17:24;;;;;;;12.02;5.90;;;;;;;26.00;29.56;98841.91;5020074;28;20209;-68
2023/04/27 07:19:50;;;;;;;11.15;6.00;;;;;;;27.90;27.22;98837.97;5053306;28;20052;-68
2023/04/27 07:22:17;;;;;;;10.35;6.07;;;;;;;29.79;24.93;98834.72;5019980;28;20060;-68
2023/04/27 07:24:42;;;;;;;12.68;5.70;;;;;;;31.78;22.10;98832.47;5016289;28;20090;-69
2023/04/27 07:27:09;;;;;;;11.40;5.35;;;;;;;33.95;19.67;98831.03;5016537;28;20060;-68
2023/04/27 07:29:36;;;;;;;13.60;5.20;;;;;;;35.68;17.89;98828.38;5000277;28;20049;-69
2023/04/27 07:32:07;;;;;;;7.40;5.10;;;;;;;36.97;16.86;98840.22;5016899;28;20084;-70
2023/04/27 07:34:34;;;;;;;10.70;5.25;;;;;;;37.08;16.35;98843.28;5016582;28;20057;-69
2023/04/27 07:37:01;;;;;;;8.68;4.93;;;;;;;36.81;16.26;98844.84;5016479;28;20045;-69
2023/04/27 07:39:27;;;;;;;12.15;5.10;;;;;;;36.67;16.13;98844.41;5016372;28;20067;-70
2023/04/27 07:41:54;;;;;;;8.60;4.50;;;;;;;36.84;15.35;98833.06;5016702;28;20052;-69
2023/04/27 07:44:20;;;;;;;11.98;4.05;;;;;;;37.94;14.99;98832.31;5016387;28;20483;-69
2023/04/27 07:46:49;;;;;;;10.82;3.72;;;;;;;38.32;14.04;98834.50;5033179;28;20064;-68
2023/04/27 07:49:15;;;;;;;9.25;3.85;;;;;;;38.32;14.13;98834.50;5033534;28;20052;-70
2023/04/27 07:51:41;;;;;;;13.65;4.13;;;;;;;38.86;13.83;98840.13;5038241;28;20079;-68
2023/04/27 07:54:07;;;;;;;9.90;4.10;;;;;;;39.32;13.24;98839.16;5039830;28;20045;-68
2023/04/27 07:56:33;;;;;;;6.32;3.85;;;;;;;39.41;13.02;98826.66;5037967;28;20082;-69
2023/04/27 07:59:00;;;;;;;13.23;4.70;;;;;;;40.38;12.18;98847.56;5039797;28;20036;-69
2023/04/27 08:01:26;;;;;;;11.43;3.95;;;;;;;40.56;12.33;98841.09;5039403;28;20048;-68
2023/04/27 08:03:52;;;;;;;8.23;3.88;;;;;;;39.46;12.57;98845.84;5023038;28;20064;-69
2023/04/27 08:06:19;;;;;;;9.90;3.72;;;;;;;38.95;13.05;98854.63;5055675;28;20459;-68
2023/04/27 08:08:45;;;;;;;8.43;3.50;;;;;;;38.78;12.89;98831.63;5022059;28;20041;-68
2023/04/27 08:11:11;;;;;;;13.23;4.18;;;;;;;39.18;12.94;98836.09;5022483;28;20036;-69
2023/04/27 08:13:37;;;;;;;7.35;4.15;;;;;;;39.70;12.35;98844.72;5039915;28;20143;-68
2023/04/27 08:16:04;;;;;;;17.90;4.38;;;;;;;39.32;12.54;98828.06;5024106;28;20076;-68
2023/04/27 08:18:30;;;;;;;12.82;3.90;;;;;;;40.20;12.23;98838.88;5023922;28;20348;-68
2023/04/27 08:20:56;;;;;;;11.95;4.50;;;;;;;40.26;12.23;98829.06;5040656;28;20051;-68
2023/04/27 08:23:26;;;;;;;12.20;6.72;;;;;;;41.59;11.80;98828.19;5023929;28;20036;-68
2023/04/27 08:25:52;;;;;;;11.40;4.57;;;;;;;43.37;10.50;98821.56;5040565;28;20109;-68
2023/04/27 08:28:18;;;;;;;11.90;5.00;;;;;;;43.50;10.20;98825.66;5023983;28;20454;-68
2023/04/27 08:30:44;;;;;;;20.02;4.70;;;;;;;43.46;10.04;98821.22;5023835;28;20049;-68
2023/04/27 08:33:10;;;;;;;12.40;4.25;;;;;;;43.03;9.74;98821.03;5040213;28;20474;-68
2023/04/27 08:35:36;;;;;;;10.73;4.20;;;;;;;43.29;10.18;98821.97;5023675;28;20190;-68
2023/04/27 08:38:02;;;;;;;13.52;5.13;;;;;;;44.30;9.59;98819.38;5040178;28;20048;-68
2023/04/27 08:40:28;;;;;;;12.48;4.00;;;;;;;43.70;9.69;98829.72;5040411;28;20045;-68
2023/04/27 08:42:56;;;;;;;13.35;3.60;;;;;;;42.44;9.83;98827.00;5056795;28;20052;-68
2023/04/27 08:45:24;;;;;;;12.25;3.83;;;;;;;41.01;10.37;98818.66;5023516;28;20418;-68
2023/04/27 08:47:50;;;;;;;8.43;3.17;;;;;;;40.59;10.77;98806.09;5040583;28;20044;-68
2023/04/27 08:50:16;;;;;;;6.60;3.50;;;;;;;41.97;10.29;98809.44;5023385;28;20048;-69
2023/04/27 08:52:47;;;;;;;11.23;4.40;;;;;;;41.38;9.97;98818.78;5023665;28;20055;-68
2023/04/27 08:55:13;;;;;;;8.95;3.63;;;;;;;41.28;10.20;98825.00;5040203;28;20044;-68
2023/04/27 08:57:40;;;;;;;6.88;3.63;;;;;;;41.56;10.01;98809.44;5039878;28;20056;-68
2023/04/27 09:00:13;;;;;;;8.75;3.13;;;;;;;41.34;10.19;98841.03;5039841;28;20044;-69
2023/04/27 09:02:46;;;;;;;8.70;2.85;;;;;;;40.96;10.33;98834.91;5023266;28;20044;-68
2023/04/27 09:05:17;;;;;;;13.50;3.05;;;;;;;40.33;10.71;98829.19;5023235;28;20064;-68
2023/04/27 09:08:06;;;;;;;9.30;3.40;;;;;;;39.95;10.68;98820.97;5023497;28;20049;-68
2023/04/27 09:10:49;;;;;;;8.23;3.17;;;;;;;39.53;11.31;98820.16;5023456;28;20139;-68
2023/04/27 09:13:16;;;;;;;6.63;3.20;;;;;;;39.62;11.42;98806.81;5039507;28;20044;-68
2023/04/27 09:15:50;;;;;;;6.30;2.75;;;;;;;40.20;11.20;98797.94;5022931;28;20075;-69
2023/04/27 09:18:20;;;;;;;8.65;3.00;;;;;;;41.14;10.50;98814.50;5022980;28;20137;-68
2023/04/27 09:20:51;;;;;;;7.07;3.25;;;;;;;41.00;10.26;98814.28;5039148;28;20144;-68
2023/04/27 09:23:30;;;;;;;5.60;3.10;;;;;;;40.64;10.37;98828.88;5022721;28;20083;-68
2023/04/27 09:25:58;;;;;;;6.05;3.22;;;;;;;39.80;11.13;98810.72;5039641;28;20086;-68
2023/04/27 09:28:26;;;;;;;7.65;3.47;;;;;;;39.64;11.05;98813.59;5022820;28;20051;-68
2023/04/27 09:30:55;;;;;;;4.13;2.72;;;;;;;39.37;10.82;98805.50;5023171;28;20084;-68
2023/04/27 09:33:28;;;;;;;7.93;2.95;;;;;;;39.70;10.80;98814.94;5023075;28;20055;-68
2023/04/27 09:35:55;;;;;;;6.45;2.60;;;;;;;39.58;10.51;98801.19;5039247;28;20398;-67
2023/04/27 09:38:23;;;;;;;7.28;2.60;;;;;;;39.88;10.47;98801.38;5038950;28;20449;-68
2023/04/27 09:40:53;;;;;;;8.25;2.88;;;;;;;41.16;10.05;98797.41;5039245;28;20131;-68
2023/04/27 09:43:19;;;;;;;5.63;2.30;;;;;;;42.10;9.23;98805.19;5038968;28;20078;-67
2023/04/27 09:45:45;;;;;;;4.60;2.45;;;;;;;40.81;9.79;98850.63;5022366;28;20048;-68
2023/04/27 09:48:12;;;;;;;8.15;2.60;;;;;;;39.47;10.82;98836.34;5039591;28;20044;-68
2023/04/27 09:50:40;;;;;;;6.43;2.28;;;;;;;38.64;11.28;98822.97;5039537;28;20173;-68
2023/04/27 09:53:09;;;;;;;2.85;2.15;;;;;;;38.44;11.33;98809.41;5022224;28;20048;-69
2023/04/27 09:56:07;;;;;;;4.95;2.40;;;;;;;38.40;11.25;98812.09;5038606;28;20083;-68
2023/04/27 09:58:58;;;;;;;3.83;2.10;;;;;;;38.72;11.21;98785.88;5038725;28;20045;-69
2023/04/27 10:01:39;;;;;;;5.43;1.90;;;;;;;39.97;10.01;98801.91;5038263;28;20048;-68
2023/04/27 10:04:36;;;;;;;5.53;2.30;;;;;;;40.06;9.94;98803.28;5022158;28;20051;-68
2023/04/27 10:07:14;;;;;;;2.25;1.90;;;;;;;38.24;10.91;98800.19;5038780;28;20498;-68
2023/04/27 10:09:47;;;;;;;4.43;2.40;;;;;;;36.08;12.63;98810.03;5038754;28;20135;-68
2023/04/27 10:12:22;;;;;;;4.80;2.83;;;;;;;33.59;14.58;98787.34;5022835;28;20105;-68
2023/04/27 10:14:54;;;;;;;6.95;2.17;;;;;;;32.84;15.58;98783.50;5038329;28;20474;-67
2023/04/27 10:17:38;;;;;;;4.65;2.65;;;;;;;31.03;17.58;98780.28;5021771;28;20062;-67
2023/04/27 10:20:08;;;;;;;5.95;2.80;;;;;;;30.18;18.55;98782.19;5038167;28;20044;-68
2023/04/27 10:22:46;;;;;;;9.00;3.03;;;;;;;29.66;19.45;98786.25;5038711;28;20044;-67
2023/04/27 10:25:13;;;;;;;11.43;5.15;;;;;;;29.61;19.18;98789.84;5037941;28;20105;-67
2023/04/27 10:27:40;;;;;;;4.97;2.65;;;;;;;28.23;20.45;98773.38;5038041;28;20083;-67
2023/04/27 10:30:10;;;;;;;11.82;3.10;;;;;;;27.71;21.76;98798.81;5021596;28;20040;-68
2023/04/27 10:32:36;;;;;;;;;;;;;;;26.82;25.37;98836.63;5021917;28;20498;-67
2023/04/27 10:35:06;;;;;;;9.73;3.60;;;;;;;25.39;31.37;98818.56;5038031;28;19971;-66
2023/04/27 10:37:43;;;;;;;5.93;3.30;;;;;;;24.18;34.21;98853.59;5038376;28;20135;-67
2023/04/27 10:40:13;;;;;;;5.90;3.50;;;;;;;23.20;35.75;98826.34;5021800;28;20048;-67
2023/04/27 10:42:48;;;;;;;7.68;3.50;;;;;;;23.33;36.73;98836.75;5021976;28;20131;-67
2023/04/27 10:45:25;;;;;;;6.82;2.70;;;;;;;23.12;36.70;98841.19;5021699;28;20040;-67
2023/04/27 10:47:57;;;;;;;4.22;2.85;;;;;;;23.18;40.94;98869.94;5037724;28;20101;-66
2023/04/27 10:50:24;;;;;;;7.28;3.30;;;;;;;23.28;39.07;98855.69;5021352;28;20048;-67
2023/04/27 10:52:50;;;;;;;9.20;3.92;;;;;;;23.42;39.17;98847.94;5037722;28;20044;-67
2023/04/27 10:55:20;;;;;;;4.65;3.20;;;;;;;24.13;39.75;98850.88;5037868;28;20082;-68
2023/04/27 10:57:53;;;;;;;5.07;2.60;;;;;;;24.95;37.64;98840.03;5020177;28;20060;-67
2023/04/27 11:00:28;;;;;;;4.00;2.67;;;;;;;26.02;33.31;98850.59;5020069;28;20091;-66
2023/04/27 11:02:56;;;;;;;2.92;2.60;;;;;;;27.69;31.70;98865.72;5020232;28;20164;-68
2023/04/27 11:05:28;;;;;;;5.80;2.25;;;;;;;29.89;26.70;98861.09;5020001;28;20086;-67
2023/04/27 11:08:10;;;;;;;2.53;1.90;;;;;;;32.17;22.92;98862.75;5037074;28;20056;-67
2023/04/27 11:10:48;;;;;;;2.33;1.35;;;;;;;33.29;20.70;98857.16;5036796;28;20148;-69
2023/04/27 11:13:17;;;;;;;1.73;1.55;;;;;;;34.50;19.07;98862.09;5053160;28;20054;-67
2023/04/27 11:15:53;;;;;;;4.22;1.40;;;;;;;35.27;17.69;98862.38;5036312;28;20052;-67
2023/04/27 11:18:21;;;;;;;3.20;1.63;;;;;;;35.50;16.86;98857.31;5003546;28;20478;-68
2023/04/27 11:20:50;;;;;;;2.08;1.88;;;;;;;35.36;17.49;98856.81;5020167;28;20063;-67
2023/04/27 11:23:23;;;;;;;5.18;2.17;;;;;;;35.21;17.39;98855.44;5003787;28;20508;-68
2023/04/27 11:25:51;;;;;;;6.22;2.38;;;;;;;33.98;18.38;98846.91;5020848;28;20064;-67
2023/04/27 11:28:18;;;;;;;5.85;2.15;;;;;;;33.49;19.17;98847.50;5023910;28;20106;-68